sensor_id;sensor_type;location;lat;lon;timestamp;P1;durP1;ratioP1;P2;durP2;ratioP2
52414;SDS011;38340;52.964;6.086;2022-11-12T00:00:30;17.13;;;12.45;;
52414;SDS011;38340;52.964;6.086;2022-11-12T00:02:56;19.77;;;12.13;;
52414;SDS011;38340;52.964;6.086;2022-11-12T00:05:22;19.48;;;11.45;;
52414;SDS011;38340;52.964;6.086;2022-11-12T00:07:48;16.10;;;11.95;;
52414;SDS011;38340;52.964;6.086;2022-11-12T00:10:14;14.85;;;10.90;;
52414;SDS011;38340;52.964;6.086;2022-11-12T00:12:41;11.70;;;8.90;;
52414;SDS011;38340;52.964;6.086;2022-11-12T00:15:07;11.38;;;8.85;;
52414;SDS011;38340;52.964;6.086;2022-11-12T00:17:33;12.55;;;8.75;;
52414;SDS011;38340;52.964;6.086;2022-11-12T00:19:58;14.70;;;9.68;;
52414;SDS011;38340;52.964;6.086;2022-11-12T00:22:24;14.57;;;10.48;;
52414;SDS011;38340;52.964;6.086;2022-11-12T00:24:50;13.15;;;10.15;;
52414;SDS011;38340;52.964;6.086;2022-11-12T00:27:15;13.13;;;10.35;;
52414;SDS011;38340;52.964;6.086;2022-11-12T00:29:41;13.65;;;10.20;;
52414;SDS011;38340;52.964;6.086;2022-11-12T00:32:07;17.55;;;11.95;;
52414;SDS011;38340;52.964;6.086;2022-11-12T00:34:34;13.13;;;9.23;;
52414;SDS011;38340;52.964;6.086;2022-11-12T00:36:59;16.55;;;10.77;;
52414;SDS011;38340;52.964;6.086;2022-11-12T00:39:26;14.73;;;10.18;;
52414;SDS011;38340;52.964;6.086;2022-11-12T00:41:52;16.73;;;10.88;;
52414;SDS011;38340;52.964;6.086;2022-11-12T00:44:18;11.02;;;8.50;;
52414;SDS011;38340;52.964;6.086;2022-11-12T00:46:43;6.85;;;5.72;;
52414;SDS011;38340;52.964;6.086;2022-11-12T00:49:10;8.68;;;6.88;;
52414;SDS011;38340;52.964;6.086;2022-11-12T00:51:35;12.68;;;9.60;;
52414;SDS011;38340;52.964;6.086;2022-11-12T00:54:01;14.38;;;11.02;;
52414;SDS011;38340;52.964;6.086;2022-11-12T00:56:27;16.52;;;11.30;;
52414;SDS011;38340;52.964;6.086;2022-11-12T00:58:53;14.60;;;10.73;;
52414;SDS011;38340;52.964;6.086;2022-11-12T01:01:18;14.35;;;10.93;;
52414;SDS011;38340;52.964;6.086;2022-11-12T01:03:45;16.75;;;11.70;;
52414;SDS011;38340;52.964;6.086;2022-11-12T01:06:12;18.83;;;12.85;;
52414;SDS011;38340;52.964;6.086;2022-11-12T01:08:39;21.35;;;13.07;;
52414;SDS011;38340;52.964;6.086;2022-11-12T01:11:10;18.83;;;11.60;;
52414;SDS011;38340;52.964;6.086;2022-11-12T01:13:39;12.32;;;9.32;;
52414;SDS011;38340;52.964;6.086;2022-11-12T01:16:06;17.35;;;10.00;;
52414;SDS011;38340;52.964;6.086;2022-11-12T01:18:44;12.93;;;10.68;;
52414;SDS011;38340;52.964;6.086;2022-11-12T01:21:10;18.00;;;11.80;;
52414;SDS011;38340;52.964;6.086;2022-11-12T01:23:37;15.75;;;12.07;;
52414;SDS011;38340;52.964;6.086;2022-11-12T01:26:05;18.08;;;12.00;;
52414;SDS011;38340;52.964;6.086;2022-11-12T01:28:32;21.45;;;12.68;;
52414;SDS011;38340;52.964;6.086;2022-11-12T01:31:08;20.35;;;13.82;;
52414;SDS011;38340;52.964;6.086;2022-11-12T01:34:05;18.20;;;12.27;;
52414;SDS011;38340;52.964;6.086;2022-11-12T01:36:32;17.38;;;11.88;;
52414;SDS011;38340;52.964;6.086;2022-11-12T01:39:00;21.88;;;13.25;;
52414;SDS011;38340;52.964;6.086;2022-11-12T01:41:28;18.95;;;13.57;;
52414;SDS011;38340;52.964;6.086;2022-11-12T01:46:59;16.85;;;12.15;;
52414;SDS011;38340;52.964;6.086;2022-11-12T01:54:39;18.45;;;13.35;;
52414;SDS011;38340;52.964;6.086;2022-11-12T01:57:07;14.60;;;11.40;;
52414;SDS011;38340;52.964;6.086;2022-11-12T01:59:40;18.20;;;12.05;;
52414;SDS011;38340;52.964;6.086;2022-11-12T02:02:09;15.30;;;12.63;;
52414;SDS011;38340;52.964;6.086;2022-11-12T02:04:35;18.92;;;12.80;;
52414;SDS011;38340;52.964;6.086;2022-11-12T02:07:03;17.10;;;13.32;;
52414;SDS011;38340;52.964;6.086;2022-11-12T02:09:32;19.27;;;14.00;;
52414;SDS011;38340;52.964;6.086;2022-11-12T02:11:58;19.52;;;14.18;;
52414;SDS011;38340;52.964;6.086;2022-11-12T02:14:24;19.27;;;14.38;;
52414;SDS011;38340;52.964;6.086;2022-11-12T02:16:50;23.10;;;14.85;;
52414;SDS011;38340;52.964;6.086;2022-11-12T02:19:17;21.10;;;14.50;;
52414;SDS011;38340;52.964;6.086;2022-11-12T02:21:43;24.63;;;16.85;;
52414;SDS011;38340;52.964;6.086;2022-11-12T02:26:47;15.68;;;13.25;;
52414;SDS011;38340;52.964;6.086;2022-11-12T02:29:16;21.27;;;15.60;;
52414;SDS011;38340;52.964;6.086;2022-11-12T02:31:41;22.95;;;15.65;;
52414;SDS011;38340;52.964;6.086;2022-11-12T02:34:07;22.55;;;15.65;;
52414;SDS011;38340;52.964;6.086;2022-11-12T02:36:33;18.15;;;14.10;;
52414;SDS011;38340;52.964;6.086;2022-11-12T02:38:58;23.13;;;15.52;;
52414;SDS011;38340;52.964;6.086;2022-11-12T02:41:24;21.52;;;15.40;;
52414;SDS011;38340;52.964;6.086;2022-11-12T02:43:50;21.77;;;15.60;;
52414;SDS011;38340;52.964;6.086;2022-11-12T02:46:16;19.70;;;14.73;;
52414;SDS011;38340;52.964;6.086;2022-11-12T02:48:42;17.45;;;14.02;;
52414;SDS011;38340;52.964;6.086;2022-11-12T02:51:09;19.17;;;14.52;;
52414;SDS011;38340;52.964;6.086;2022-11-12T02:53:34;20.25;;;15.10;;
52414;SDS011;38340;52.964;6.086;2022-11-12T02:56:00;21.23;;;14.75;;
52414;SDS011;38340;52.964;6.086;2022-11-12T02:58:26;20.67;;;14.90;;
52414;SDS011;38340;52.964;6.086;2022-11-12T03:00:53;20.45;;;15.20;;
52414;SDS011;38340;52.964;6.086;2022-11-12T03:03:20;23.40;;;16.45;;
52414;SDS011;38340;52.964;6.086;2022-11-12T03:05:53;22.77;;;16.48;;
52414;SDS011;38340;52.964;6.086;2022-11-12T03:08:21;23.23;;;15.63;;
52414;SDS011;38340;52.964;6.086;2022-11-12T03:10:47;26.88;;;16.95;;
52414;SDS011;38340;52.964;6.086;2022-11-12T03:13:12;20.67;;;16.33;;
52414;SDS011;38340;52.964;6.086;2022-11-12T03:15:38;21.67;;;17.10;;
52414;SDS011;38340;52.964;6.086;2022-11-12T03:18:03;23.15;;;16.95;;
52414;SDS011;38340;52.964;6.086;2022-11-12T03:20:29;24.27;;;17.63;;
52414;SDS011;38340;52.964;6.086;2022-11-12T03:22:59;20.80;;;16.65;;
52414;SDS011;38340;52.964;6.086;2022-11-12T03:25:26;23.20;;;16.80;;
52414;SDS011;38340;52.964;6.086;2022-11-12T03:27:56;27.63;;;16.05;;
52414;SDS011;38340;52.964;6.086;2022-11-12T03:30:34;22.98;;;17.05;;
52414;SDS011;38340;52.964;6.086;2022-11-12T03:33:01;20.88;;;16.20;;
52414;SDS011;38340;52.964;6.086;2022-11-12T03:35:27;23.90;;;17.38;;
52414;SDS011;38340;52.964;6.086;2022-11-12T03:37:52;24.65;;;16.45;;
52414;SDS011;38340;52.964;6.086;2022-11-12T03:40:18;23.08;;;17.05;;
52414;SDS011;38340;52.964;6.086;2022-11-12T03:42:45;18.70;;;15.45;;
52414;SDS011;38340;52.964;6.086;2022-11-12T03:45:14;23.08;;;15.60;;
52414;SDS011;38340;52.964;6.086;2022-11-12T03:47:44;21.30;;;15.55;;
52414;SDS011;38340;52.964;6.086;2022-11-12T03:50:12;23.95;;;16.27;;
52414;SDS011;38340;52.964;6.086;2022-11-12T03:52:39;26.63;;;16.83;;
52414;SDS011;38340;52.964;6.086;2022-11-12T03:55:12;26.73;;;17.33;;
52414;SDS011;38340;52.964;6.086;2022-11-12T03:57:40;18.77;;;13.90;;
52414;SDS011;38340;52.964;6.086;2022-11-12T04:00:06;14.23;;;11.43;;
52414;SDS011;38340;52.964;6.086;2022-11-12T04:02:34;15.13;;;11.32;;
52414;SDS011;38340;52.964;6.086;2022-11-12T04:05:00;17.55;;;11.98;;
52414;SDS011;38340;52.964;6.086;2022-11-12T04:07:47;16.55;;;12.30;;
52414;SDS011;38340;52.964;6.086;2022-11-12T04:10:32;15.80;;;13.07;;
52414;SDS011;38340;52.964;6.086;2022-11-12T04:12:58;15.48;;;11.95;;
52414;SDS011;38340;52.964;6.086;2022-11-12T04:15:42;12.45;;;10.15;;
52414;SDS011;38340;52.964;6.086;2022-11-12T04:18:07;13.05;;;10.23;;
52414;SDS011;38340;52.964;6.086;2022-11-12T04:20:51;23.23;;;15.82;;
52414;SDS011;38340;52.964;6.086;2022-11-12T04:23:35;13.90;;;11.80;;
52414;SDS011;38340;52.964;6.086;2022-11-12T04:26:01;28.58;;;10.25;;
52414;SDS011;38340;52.964;6.086;2022-11-12T04:28:45;10.48;;;8.50;;
52414;SDS011;38340;52.964;6.086;2022-11-12T04:31:29;10.93;;;9.32;;
52414;SDS011;38340;52.964;6.086;2022-11-12T04:33:55;12.73;;;9.60;;
52414;SDS011;38340;52.964;6.086;2022-11-12T04:39:06;20.58;;;11.35;;
52414;SDS011;38340;52.964;6.086;2022-11-12T04:41:32;15.65;;;11.65;;
52414;SDS011;38340;52.964;6.086;2022-11-12T04:44:16;15.10;;;11.18;;
52414;SDS011;38340;52.964;6.086;2022-11-12T04:47:00;17.38;;;13.18;;
52414;SDS011;38340;52.964;6.086;2022-11-12T04:49:25;67.63;;;13.50;;
52414;SDS011;38340;52.964;6.086;2022-11-12T04:51:52;14.95;;;10.88;;
52414;SDS011;38340;52.964;6.086;2022-11-12T04:54:30;13.63;;;10.68;;
52414;SDS011;38340;52.964;6.086;2022-11-12T04:56:57;15.07;;;11.13;;
52414;SDS011;38340;52.964;6.086;2022-11-12T04:59:22;16.48;;;12.13;;
52414;SDS011;38340;52.964;6.086;2022-11-12T05:01:48;16.95;;;12.23;;
52414;SDS011;38340;52.964;6.086;2022-11-12T05:04:14;17.00;;;12.35;;
52414;SDS011;38340;52.964;6.086;2022-11-12T05:06:39;15.40;;;11.75;;
52414;SDS011;38340;52.964;6.086;2022-11-12T05:09:17;14.55;;;11.65;;
52414;SDS011;38340;52.964;6.086;2022-11-12T05:11:48;13.93;;;11.07;;
52414;SDS011;38340;52.964;6.086;2022-11-12T05:14:14;13.80;;;11.20;;
52414;SDS011;38340;52.964;6.086;2022-11-12T05:16:40;12.40;;;10.00;;
52414;SDS011;38340;52.964;6.086;2022-11-12T05:19:06;11.70;;;10.23;;
52414;SDS011;38340;52.964;6.086;2022-11-12T05:21:32;16.00;;;10.90;;
52414;SDS011;38340;52.964;6.086;2022-11-12T05:24:16;15.02;;;11.68;;
52414;SDS011;38340;52.964;6.086;2022-11-12T05:26:42;15.10;;;12.13;;
52414;SDS011;38340;52.964;6.086;2022-11-12T05:29:07;15.77;;;12.27;;
52414;SDS011;38340;52.964;6.086;2022-11-12T05:31:33;21.95;;;14.88;;
52414;SDS011;38340;52.964;6.086;2022-11-12T05:33:59;24.10;;;16.73;;
52414;SDS011;38340;52.964;6.086;2022-11-12T05:36:25;83.47;;;23.60;;
52414;SDS011;38340;52.964;6.086;2022-11-12T05:38:51;24.02;;;18.60;;
52414;SDS011;38340;52.964;6.086;2022-11-12T05:41:16;148.35;;;27.92;;
52414;SDS011;38340;52.964;6.086;2022-11-12T05:43:42;82.78;;;23.42;;
52414;SDS011;38340;52.964;6.086;2022-11-12T05:46:08;33.30;;;19.52;;
52414;SDS011;38340;52.964;6.086;2022-11-12T05:48:34;29.35;;;19.83;;
52414;SDS011;38340;52.964;6.086;2022-11-12T05:51:00;32.17;;;19.98;;
52414;SDS011;38340;52.964;6.086;2022-11-12T05:53:25;158.18;;;32.13;;
52414;SDS011;38340;52.964;6.086;2022-11-12T05:55:51;147.13;;;28.40;;
52414;SDS011;38340;52.964;6.086;2022-11-12T05:58:17;350.48;;;50.63;;
52414;SDS011;38340;52.964;6.086;2022-11-12T06:00:42;61.88;;;23.27;;
52414;SDS011;38340;52.964;6.086;2022-11-12T06:03:08;31.38;;;21.17;;
52414;SDS011;38340;52.964;6.086;2022-11-12T06:05:35;28.83;;;20.08;;
52414;SDS011;38340;52.964;6.086;2022-11-12T06:08:02;43.83;;;21.42;;
52414;SDS011;38340;52.964;6.086;2022-11-12T06:10:30;26.60;;;19.80;;
52414;SDS011;38340;52.964;6.086;2022-11-12T06:12:56;30.00;;;20.50;;
52414;SDS011;38340;52.964;6.086;2022-11-12T06:15:22;30.25;;;21.25;;
52414;SDS011;38340;52.964;6.086;2022-11-12T06:17:54;43.95;;;24.42;;
52414;SDS011;38340;52.964;6.086;2022-11-12T06:20:21;31.48;;;21.27;;
52414;SDS011;38340;52.964;6.086;2022-11-12T06:22:47;35.72;;;23.00;;
52414;SDS011;38340;52.964;6.086;2022-11-12T06:25:14;237.70;;;43.95;;
52414;SDS011;38340;52.964;6.086;2022-11-12T06:27:40;48.53;;;24.73;;
52414;SDS011;38340;52.964;6.086;2022-11-12T06:30:06;54.13;;;23.27;;
52414;SDS011;38340;52.964;6.086;2022-11-12T06:32:32;61.67;;;26.08;;
52414;SDS011;38340;52.964;6.086;2022-11-12T06:34:58;72.97;;;27.00;;
52414;SDS011;38340;52.964;6.086;2022-11-12T06:37:24;58.90;;;23.63;;
52414;SDS011;38340;52.964;6.086;2022-11-12T06:39:50;70.78;;;24.45;;
52414;SDS011;38340;52.964;6.086;2022-11-12T06:42:16;66.70;;;25.05;;
52414;SDS011;38340;52.964;6.086;2022-11-12T06:44:42;72.85;;;25.67;;
52414;SDS011;38340;52.964;6.086;2022-11-12T06:47:08;113.72;;;27.88;;
52414;SDS011;38340;52.964;6.086;2022-11-12T06:49:34;92.72;;;29.50;;
52414;SDS011;38340;52.964;6.086;2022-11-12T06:52:00;140.63;;;32.75;;
52414;SDS011;38340;52.964;6.086;2022-11-12T06:54:25;79.47;;;27.10;;
52414;SDS011;38340;52.964;6.086;2022-11-12T06:56:51;80.90;;;26.98;;
52414;SDS011;38340;52.964;6.086;2022-11-12T06:59:17;97.90;;;27.77;;
52414;SDS011;38340;52.964;6.086;2022-11-12T07:01:43;138.82;;;34.22;;
52414;SDS011;38340;52.964;6.086;2022-11-12T07:04:09;88.40;;;27.48;;
52414;SDS011;38340;52.964;6.086;2022-11-12T07:06:34;123.07;;;32.33;;
52414;SDS011;38340;52.964;6.086;2022-11-12T07:09:01;124.30;;;32.47;;
52414;SDS011;38340;52.964;6.086;2022-11-12T07:11:28;84.53;;;28.75;;
52414;SDS011;38340;52.964;6.086;2022-11-12T07:13:53;200.68;;;41.72;;
52414;SDS011;38340;52.964;6.086;2022-11-12T07:16:19;224.65;;;44.20;;
52414;SDS011;38340;52.964;6.086;2022-11-12T07:18:46;72.72;;;27.33;;
52414;SDS011;38340;52.964;6.086;2022-11-12T07:21:17;148.60;;;37.17;;
52414;SDS011;38340;52.964;6.086;2022-11-12T07:23:44;158.52;;;37.83;;
52414;SDS011;38340;52.964;6.086;2022-11-12T07:26:21;113.38;;;33.05;;
52414;SDS011;38340;52.964;6.086;2022-11-12T07:28:48;105.68;;;33.88;;
52414;SDS011;38340;52.964;6.086;2022-11-12T07:31:15;89.00;;;32.33;;
52414;SDS011;38340;52.964;6.086;2022-11-12T07:33:42;104.95;;;34.53;;
52414;SDS011;38340;52.964;6.086;2022-11-12T07:36:09;198.93;;;45.13;;
52414;SDS011;38340;52.964;6.086;2022-11-12T07:38:43;115.03;;;37.80;;
52414;SDS011;38340;52.964;6.086;2022-11-12T07:41:13;133.52;;;40.38;;
52414;SDS011;38340;52.964;6.086;2022-11-12T07:43:44;131.25;;;38.55;;
52414;SDS011;38340;52.964;6.086;2022-11-12T07:46:18;148.45;;;41.15;;
52414;SDS011;38340;52.964;6.086;2022-11-12T07:48:48;220.70;;;50.75;;
52414;SDS011;38340;52.964;6.086;2022-11-12T07:51:15;327.52;;;59.88;;
52414;SDS011;38340;52.964;6.086;2022-11-12T07:53:44;159.90;;;43.75;;
52414;SDS011;38340;52.964;6.086;2022-11-12T07:56:12;104.78;;;40.50;;
52414;SDS011;38340;52.964;6.086;2022-11-12T07:58:40;122.70;;;43.55;;
52414;SDS011;38340;52.964;6.086;2022-11-12T08:01:11;204.15;;;55.50;;
52414;SDS011;38340;52.964;6.086;2022-11-12T08:03:54;151.35;;;47.10;;
52414;SDS011;38340;52.964;6.086;2022-11-12T08:06:19;91.65;;;41.38;;
52414;SDS011;38340;52.964;6.086;2022-11-12T08:08:45;103.00;;;41.22;;
52414;SDS011;38340;52.964;6.086;2022-11-12T08:11:11;93.40;;;40.33;;
52414;SDS011;38340;52.964;6.086;2022-11-12T08:13:37;102.20;;;43.08;;
52414;SDS011;38340;52.964;6.086;2022-11-12T08:16:02;86.13;;;39.17;;
52414;SDS011;38340;52.964;6.086;2022-11-12T08:18:29;75.53;;;36.78;;
52414;SDS011;38340;52.964;6.086;2022-11-12T08:20:59;85.05;;;37.40;;
52414;SDS011;38340;52.964;6.086;2022-11-12T08:23:26;93.03;;;37.05;;
52414;SDS011;38340;52.964;6.086;2022-11-12T08:25:56;81.40;;;35.67;;
52414;SDS011;38340;52.964;6.086;2022-11-12T08:28:22;132.90;;;39.40;;
52414;SDS011;38340;52.964;6.086;2022-11-12T08:30:48;79.15;;;34.63;;
52414;SDS011;38340;52.964;6.086;2022-11-12T08:33:14;102.57;;;36.67;;
52414;SDS011;38340;52.964;6.086;2022-11-12T08:35:40;174.07;;;41.33;;
52414;SDS011;38340;52.964;6.086;2022-11-12T08:38:05;88.18;;;33.47;;
52414;SDS011;38340;52.964;6.086;2022-11-12T08:40:35;285.20;;;53.60;;
52414;SDS011;38340;52.964;6.086;2022-11-12T08:43:03;105.43;;;35.97;;
52414;SDS011;38340;52.964;6.086;2022-11-12T08:45:37;170.32;;;40.28;;
52414;SDS011;38340;52.964;6.086;2022-11-12T08:48:05;108.70;;;34.50;;
52414;SDS011;38340;52.964;6.086;2022-11-12T08:50:32;185.45;;;39.97;;
52414;SDS011;38340;52.964;6.086;2022-11-12T08:52:59;118.28;;;35.05;;
52414;SDS011;38340;52.964;6.086;2022-11-12T08:55:30;70.03;;;30.77;;
52414;SDS011;38340;52.964;6.086;2022-11-12T08:57:57;76.72;;;30.65;;
52414;SDS011;38340;52.964;6.086;2022-11-12T09:00:26;80.97;;;31.05;;
52414;SDS011;38340;52.964;6.086;2022-11-12T09:03:01;82.53;;;31.50;;
52414;SDS011;38340;52.964;6.086;2022-11-12T09:05:28;107.45;;;34.05;;
52414;SDS011;38340;52.964;6.086;2022-11-12T09:08:01;161.20;;;40.03;;
52414;SDS011;38340;52.964;6.086;2022-11-12T09:10:32;439.25;;;63.80;;
52414;SDS011;38340;52.964;6.086;2022-11-12T09:12:58;108.50;;;34.78;;
52414;SDS011;38340;52.964;6.086;2022-11-12T09:15:24;88.47;;;33.13;;
52414;SDS011;38340;52.964;6.086;2022-11-12T09:17:57;72.70;;;30.80;;
52414;SDS011;38340;52.964;6.086;2022-11-12T09:20:28;147.77;;;39.28;;
52414;SDS011;38340;52.964;6.086;2022-11-12T09:22:59;97.03;;;32.70;;
52414;SDS011;38340;52.964;6.086;2022-11-12T09:25:26;100.32;;;31.58;;
52414;SDS011;38340;52.964;6.086;2022-11-12T09:27:52;114.38;;;33.63;;
52414;SDS011;38340;52.964;6.086;2022-11-12T09:30:18;91.45;;;31.77;;
52414;SDS011;38340;52.964;6.086;2022-11-12T09:32:44;91.18;;;30.92;;
52414;SDS011;38340;52.964;6.086;2022-11-12T09:35:10;79.78;;;29.70;;
52414;SDS011;38340;52.964;6.086;2022-11-12T09:37:36;189.68;;;40.30;;
52414;SDS011;38340;52.964;6.086;2022-11-12T09:40:02;82.20;;;30.42;;
52414;SDS011;38340;52.964;6.086;2022-11-12T09:42:29;59.58;;;26.25;;
52414;SDS011;38340;52.964;6.086;2022-11-12T09:45:02;152.07;;;35.13;;
52414;SDS011;38340;52.964;6.086;2022-11-12T09:47:56;83.10;;;32.83;;
52414;SDS011;38340;52.964;6.086;2022-11-12T09:50:27;88.05;;;31.77;;
52414;SDS011;38340;52.964;6.086;2022-11-12T09:52:59;87.47;;;28.52;;
52414;SDS011;38340;52.964;6.086;2022-11-12T09:55:38;113.38;;;34.65;;
52414;SDS011;38340;52.964;6.086;2022-11-12T09:58:09;76.93;;;27.52;;
52414;SDS011;38340;52.964;6.086;2022-11-12T10:00:36;56.67;;;26.13;;
52414;SDS011;38340;52.964;6.086;2022-11-12T10:06:09;59.47;;;27.17;;
52414;SDS011;38340;52.964;6.086;2022-11-12T10:09:27;71.50;;;29.33;;
52414;SDS011;38340;52.964;6.086;2022-11-12T10:17:08;54.75;;;26.80;;
52414;SDS011;38340;52.964;6.086;2022-11-12T10:19:54;90.15;;;29.80;;
52414;SDS011;38340;52.964;6.086;2022-11-12T10:25:25;69.07;;;29.25;;
52414;SDS011;38340;52.964;6.086;2022-11-12T10:27:53;54.92;;;27.00;;
52414;SDS011;38340;52.964;6.086;2022-11-12T10:30:20;52.50;;;27.90;;
52414;SDS011;38340;52.964;6.086;2022-11-12T10:32:48;72.15;;;32.63;;
52414;SDS011;38340;52.964;6.086;2022-11-12T10:35:16;72.68;;;30.50;;
52414;SDS011;38340;52.964;6.086;2022-11-12T10:37:58;56.78;;;29.58;;
52414;SDS011;38340;52.964;6.086;2022-11-12T10:40:31;125.63;;;35.55;;
52414;SDS011;38340;52.964;6.086;2022-11-12T10:45:25;54.00;;;28.88;;
52414;SDS011;38340;52.964;6.086;2022-11-12T10:47:52;62.97;;;34.55;;
52414;SDS011;38340;52.964;6.086;2022-11-12T10:55:57;47.03;;;29.25;;
52414;SDS011;38340;52.964;6.086;2022-11-12T10:58:28;54.47;;;30.77;;
52414;SDS011;38340;52.964;6.086;2022-11-12T11:00:55;46.05;;;29.00;;
52414;SDS011;38340;52.964;6.086;2022-11-12T11:03:44;40.40;;;28.70;;
52414;SDS011;38340;52.964;6.086;2022-11-12T11:08:41;42.40;;;28.50;;
52414;SDS011;38340;52.964;6.086;2022-11-12T11:11:22;46.50;;;29.50;;
52414;SDS011;38340;52.964;6.086;2022-11-12T11:13:56;44.08;;;28.88;;
52414;SDS011;38340;52.964;6.086;2022-11-12T11:16:32;44.70;;;30.15;;
52414;SDS011;38340;52.964;6.086;2022-11-12T11:19:16;40.30;;;29.40;;
52414;SDS011;38340;52.964;6.086;2022-11-12T11:21:51;41.63;;;29.83;;
52414;SDS011;38340;52.964;6.086;2022-11-12T11:27:09;41.88;;;29.17;;
52414;SDS011;38340;52.964;6.086;2022-11-12T11:35:35;37.47;;;26.20;;
52414;SDS011;38340;52.964;6.086;2022-11-12T11:43:41;33.90;;;24.95;;
52414;SDS011;38340;52.964;6.086;2022-11-12T11:56:41;31.07;;;22.93;;
52414;SDS011;38340;52.964;6.086;2022-11-12T12:05:23;27.63;;;21.77;;
52414;SDS011;38340;52.964;6.086;2022-11-12T12:07:35;28.35;;;20.38;;
52414;SDS011;38340;52.964;6.086;2022-11-12T12:21:17;23.52;;;19.42;;
52414;SDS011;38340;52.964;6.086;2022-11-12T12:23:45;26.48;;;20.10;;
52414;SDS011;38340;52.964;6.086;2022-11-12T12:26:20;26.45;;;20.33;;
52414;SDS011;38340;52.964;6.086;2022-11-12T12:28:55;23.52;;;20.08;;
52414;SDS011;38340;52.964;6.086;2022-11-12T12:31:46;23.23;;;18.08;;
52414;SDS011;38340;52.964;6.086;2022-11-12T12:34:23;22.85;;;18.40;;
52414;SDS011;38340;52.964;6.086;2022-11-12T12:36:57;24.83;;;18.08;;
52414;SDS011;38340;52.964;6.086;2022-11-12T12:42:25;23.67;;;17.38;;
52414;SDS011;38340;52.964;6.086;2022-11-12T12:45:10;21.95;;;17.25;;
52414;SDS011;38340;52.964;6.086;2022-11-12T12:47:41;20.90;;;17.63;;
52414;SDS011;38340;52.964;6.086;2022-11-12T12:50:11;22.17;;;16.33;;
52414;SDS011;38340;52.964;6.086;2022-11-12T12:55:40;23.65;;;18.65;;
52414;SDS011;38340;52.964;6.086;2022-11-12T12:58:15;21.80;;;17.95;;
52414;SDS011;38340;52.964;6.086;2022-11-12T13:00:49;22.77;;;17.75;;
52414;SDS011;38340;52.964;6.086;2022-11-12T13:06:22;25.63;;;19.45;;
52414;SDS011;38340;52.964;6.086;2022-11-12T13:19:35;26.08;;;19.77;;
52414;SDS011;38340;52.964;6.086;2022-11-12T13:32:43;23.10;;;18.38;;
52414;SDS011;38340;52.964;6.086;2022-11-12T13:35:20;24.00;;;17.85;;
52414;SDS011;38340;52.964;6.086;2022-11-12T13:45:50;28.25;;;20.90;;
52414;SDS011;38340;52.964;6.086;2022-11-12T13:51:15;23.10;;;17.77;;
52414;SDS011;38340;52.964;6.086;2022-11-12T13:53:42;23.02;;;17.80;;
52414;SDS011;38340;52.964;6.086;2022-11-12T13:56:12;21.08;;;17.63;;
52414;SDS011;38340;52.964;6.086;2022-11-12T13:58:48;24.70;;;19.15;;
52414;SDS011;38340;52.964;6.086;2022-11-12T14:01:14;23.40;;;18.50;;
52414;SDS011;38340;52.964;6.086;2022-11-12T14:03:49;22.15;;;18.50;;
52414;SDS011;38340;52.964;6.086;2022-11-12T14:20:37;25.35;;;17.45;;
52414;SDS011;38340;52.964;6.086;2022-11-12T14:25:49;24.05;;;17.27;;
52414;SDS011;38340;52.964;6.086;2022-11-12T14:28:24;24.27;;;17.90;;
52414;SDS011;38340;52.964;6.086;2022-11-12T14:30:57;23.85;;;17.52;;
52414;SDS011;38340;52.964;6.086;2022-11-12T14:33:25;23.95;;;19.08;;
52414;SDS011;38340;52.964;6.086;2022-11-12T14:35:53;26.25;;;19.75;;
52414;SDS011;38340;52.964;6.086;2022-11-12T14:38:26;25.73;;;21.55;;
52414;SDS011;38340;52.964;6.086;2022-11-12T14:41:08;30.25;;;22.67;;
52414;SDS011;38340;52.964;6.086;2022-11-12T14:46:07;31.92;;;23.98;;
52414;SDS011;38340;52.964;6.086;2022-11-12T14:48:59;28.52;;;23.02;;
52414;SDS011;38340;52.964;6.086;2022-11-12T14:51:26;29.98;;;22.38;;
52414;SDS011;38340;52.964;6.086;2022-11-12T14:54:03;29.95;;;22.17;;
52414;SDS011;38340;52.964;6.086;2022-11-12T14:59:14;27.30;;;21.40;;
52414;SDS011;38340;52.964;6.086;2022-11-12T15:04:39;27.30;;;20.85;;
52414;SDS011;38340;52.964;6.086;2022-11-12T15:07:21;25.10;;;19.95;;
52414;SDS011;38340;52.964;6.086;2022-11-12T15:09:48;27.77;;;20.38;;
52414;SDS011;38340;52.964;6.086;2022-11-12T15:12:20;27.65;;;21.33;;
52414;SDS011;38340;52.964;6.086;2022-11-12T15:15:02;28.52;;;21.00;;
52414;SDS011;38340;52.964;6.086;2022-11-12T15:17:32;26.02;;;20.23;;
52414;SDS011;38340;52.964;6.086;2022-11-12T15:20:03;28.65;;;21.42;;
52414;SDS011;38340;52.964;6.086;2022-11-12T15:22:30;25.50;;;20.67;;
52414;SDS011;38340;52.964;6.086;2022-11-12T15:27:45;29.60;;;21.92;;
52414;SDS011;38340;52.964;6.086;2022-11-12T15:30:15;25.75;;;19.90;;
52414;SDS011;38340;52.964;6.086;2022-11-12T15:32:48;26.45;;;20.45;;
52414;SDS011;38340;52.964;6.086;2022-11-12T15:35:33;27.75;;;20.98;;
52414;SDS011;38340;52.964;6.086;2022-11-12T15:38:02;28.77;;;21.90;;
52414;SDS011;38340;52.964;6.086;2022-11-12T15:40:35;31.40;;;22.02;;
52414;SDS011;38340;52.964;6.086;2022-11-12T15:43:11;40.85;;;23.30;;
52414;SDS011;38340;52.964;6.086;2022-11-12T15:45:42;29.27;;;22.38;;
52414;SDS011;38340;52.964;6.086;2022-11-12T15:48:15;29.58;;;21.88;;
52414;SDS011;38340;52.964;6.086;2022-11-12T15:50:41;27.67;;;20.05;;
52414;SDS011;38340;52.964;6.086;2022-11-12T15:53:07;27.33;;;21.13;;
52414;SDS011;38340;52.964;6.086;2022-11-12T15:55:32;27.92;;;20.90;;
52414;SDS011;38340;52.964;6.086;2022-11-12T15:58:00;27.95;;;21.00;;
52414;SDS011;38340;52.964;6.086;2022-11-12T16:00:30;30.00;;;22.58;;
52414;SDS011;38340;52.964;6.086;2022-11-12T16:03:09;33.85;;;22.85;;
52414;SDS011;38340;52.964;6.086;2022-11-12T16:05:39;27.58;;;20.67;;
52414;SDS011;38340;52.964;6.086;2022-11-12T16:08:05;26.23;;;19.67;;
52414;SDS011;38340;52.964;6.086;2022-11-12T16:10:31;74.57;;;24.45;;
52414;SDS011;38340;52.964;6.086;2022-11-12T16:12:58;21.98;;;17.27;;
52414;SDS011;38340;52.964;6.086;2022-11-12T16:15:24;26.25;;;20.35;;
52414;SDS011;38340;52.964;6.086;2022-11-12T16:17:51;26.42;;;19.77;;
52414;SDS011;38340;52.964;6.086;2022-11-12T16:20:28;25.10;;;18.98;;
52414;SDS011;38340;52.964;6.086;2022-11-12T16:22:56;27.75;;;19.77;;
52414;SDS011;38340;52.964;6.086;2022-11-12T16:25:22;26.65;;;19.65;;
52414;SDS011;38340;52.964;6.086;2022-11-12T16:27:51;25.08;;;19.13;;
52414;SDS011;38340;52.964;6.086;2022-11-12T16:30:18;23.58;;;17.38;;
52414;SDS011;38340;52.964;6.086;2022-11-12T16:32:46;31.60;;;17.27;;
52414;SDS011;38340;52.964;6.086;2022-11-12T16:35:12;197.43;;;27.77;;
52414;SDS011;38340;52.964;6.086;2022-11-12T16:37:39;22.02;;;16.50;;
52414;SDS011;38340;52.964;6.086;2022-11-12T16:40:08;17.27;;;14.02;;
52414;SDS011;38340;52.964;6.086;2022-11-12T16:42:39;18.95;;;15.10;;
52414;SDS011;38340;52.964;6.086;2022-11-12T16:45:13;16.92;;;13.82;;
52414;SDS011;38340;52.964;6.086;2022-11-12T16:47:44;22.05;;;16.00;;
52414;SDS011;38340;52.964;6.086;2022-11-12T16:50:12;20.27;;;16.27;;
52414;SDS011;38340;52.964;6.086;2022-11-12T16:52:40;33.72;;;15.30;;
52414;SDS011;38340;52.964;6.086;2022-11-12T16:55:07;22.98;;;15.10;;
52414;SDS011;38340;52.964;6.086;2022-11-12T16:57:33;19.70;;;16.20;;
52414;SDS011;38340;52.964;6.086;2022-11-12T16:59:59;23.35;;;16.98;;